Terminal Aerodrome Forecast
Issued by NWS Nashville, TN

Home | Current Version | Previous Version | Text Only | Print | Product List | Glossary On
Versions: 1 2 3 4 5 6 7 8 9 10 11 12 13 14 15 16 17 18 19 20 21
865
FTUS44 KOHX 191726
TAFCSV
TAF
KCSV 191726Z 1918/2018 22005KT P6SM BKN040
      TEMPO 1918/1922 4SM -TSRA BR OVC030CB
     FM192300 18002KT P6SM SCT150
     FM200900 VRB02KT 2SM BR SCT150
     FM201400 VRB02KT P6SM SCT030=

USA.gov is the U.S. government's official web portal to all federal, state and local government web resources and services.